createdAt,value
2022-12-29T00:01:58.564Z,-0.79
2022-12-29T00:05:01.230Z,-0.84
2022-12-29T00:08:03.697Z,-0.83
2022-12-29T00:11:09.860Z,-0.92
2022-12-29T00:14:31.509Z,-0.96
2022-12-29T00:17:33.806Z,-1.03
2022-12-29T00:21:00.210Z,-1.04
2022-12-29T00:24:28.559Z,-1.05
2022-12-29T00:27:49.686Z,-1.06
2022-12-29T00:31:11.140Z,-1.05
2022-12-29T00:34:33.261Z,-0.92
2022-12-29T00:37:58.132Z,-0.98
2022-12-29T00:41:18.966Z,-0.99
2022-12-29T00:44:21.388Z,-0.96
2022-12-29T00:47:23.653Z,-1.08
2022-12-29T00:50:25.991Z,-1.09
2022-12-29T00:53:28.253Z,-0.97
2022-12-29T00:56:31.057Z,-0.85
2022-12-29T00:59:33.696Z,-0.77
2022-12-29T01:02:36.500Z,-0.74
2022-12-29T01:05:39.361Z,-0.79
2022-12-29T01:08:42.161Z,-0.91
2022-12-29T01:11:44.638Z,-0.81
2022-12-29T01:14:47.050Z,-0.83
2022-12-29T01:17:49.298Z,-0.89
2022-12-29T01:20:51.941Z,-0.81
2022-12-29T01:23:54.175Z,-0.73
2022-12-29T01:26:56.696Z,-0.62
2022-12-29T01:29:59.189Z,-0.55
2022-12-29T01:33:01.898Z,-0.63
2022-12-29T01:36:05.364Z,-0.75
2022-12-29T01:39:07.666Z,-0.81
2022-12-29T01:42:13.887Z,-0.86
2022-12-29T01:45:17.219Z,-0.72
2022-12-29T01:48:20.678Z,-0.80
2022-12-29T01:51:23.957Z,-0.87
2022-12-29T01:54:30.146Z,-0.72
2022-12-29T01:57:34.059Z,-0.75
2022-12-29T02:00:37.655Z,-0.69
2022-12-29T02:03:40.560Z,-0.77
2022-12-29T02:06:57.503Z,-0.88
2022-12-29T02:10:00.356Z,-0.90
2022-12-29T02:13:04.428Z,-0.83
2022-12-29T02:16:09.528Z,-0.75
2022-12-29T02:19:23.701Z,-0.77
2022-12-29T02:22:36.065Z,-0.75
2022-12-29T02:25:48.433Z,-0.84
2022-12-29T02:29:05.845Z,-0.79
2022-12-29T02:32:09.702Z,-0.76
2022-12-29T02:35:16.145Z,-0.68
2022-12-29T02:38:22.677Z,-0.56
2022-12-29T02:41:35.771Z,-0.57
2022-12-29T02:44:48.190Z,-0.60
2022-12-29T02:48:11.301Z,-0.67
2022-12-29T02:51:16.094Z,-0.49
2022-12-29T02:54:38.613Z,-0.52
2022-12-29T02:57:43.473Z,-0.50
2022-12-29T03:00:51.326Z,-0.39
2022-12-29T03:03:54.209Z,-0.30
2022-12-29T03:07:15.953Z,-0.28
2022-12-29T03:10:21.978Z,-0.34
2022-12-29T03:13:43.739Z,-0.33
2022-12-29T03:16:48.422Z,-0.26
2022-12-29T03:19:52.720Z,-0.14
2022-12-29T03:22:57.144Z,-0.15
2022-12-29T03:26:01.269Z,-0.08
2022-12-29T03:29:04.275Z,-0.18
2022-12-29T03:32:07.240Z,-0.24
2022-12-29T03:35:11.028Z,-0.15
2022-12-29T03:38:32.078Z,-0.06
2022-12-29T03:41:37.184Z,-0.07
2022-12-29T03:44:42.371Z,-0.06
2022-12-29T03:47:46.955Z,0.01
2022-12-29T03:50:49.773Z,0.08
2022-12-29T03:53:53.707Z,0.11
2022-12-29T03:56:56.749Z,0.18
2022-12-29T04:00:11.989Z,0.13
2022-12-29T04:03:26.961Z,0.18
2022-12-29T04:06:30.251Z,0.25
2022-12-29T04:09:41.525Z,0.30
2022-12-29T04:12:48.084Z,0.30
2022-12-29T04:15:51.196Z,0.37
2022-12-29T04:18:54.903Z,0.39
2022-12-29T04:21:59.518Z,0.35
2022-12-29T04:25:02.500Z,0.40
2022-12-29T04:28:06.014Z,0.47
2022-12-29T04:31:31.725Z,0.56
2022-12-29T04:34:35.319Z,0.44
2022-12-29T04:37:38.249Z,0.47
2022-12-29T04:40:41.983Z,0.54
2022-12-29T04:43:45.889Z,0.51
2022-12-29T04:46:51.591Z,0.56
2022-12-29T04:50:14.823Z,0.59
2022-12-29T04:53:28.738Z,0.60
2022-12-29T04:56:35.188Z,0.67
2022-12-29T04:59:38.183Z,0.80
2022-12-29T05:02:41.787Z,0.72
2022-12-29T05:05:44.872Z,0.72
2022-12-29T05:08:49.053Z,0.73
2022-12-29T05:11:52.057Z,0.76
2022-12-29T05:15:00.717Z,0.82
2022-12-29T05:18:03.728Z,0.88
2022-12-29T05:21:06.537Z,0.74
2022-12-29T05:24:09.561Z,0.68
2022-12-29T05:27:12.504Z,0.76
2022-12-29T05:30:41.579Z,0.88
2022-12-29T05:33:44.618Z,0.93
2022-12-29T05:36:48.999Z,1.04
2022-12-29T05:39:51.656Z,1.05
2022-12-29T05:42:54.492Z,1.03
2022-12-29T05:46:17.829Z,1.02
2022-12-29T05:49:38.286Z,1.13
2022-12-29T05:52:47.840Z,1.15
2022-12-29T05:55:53.741Z,1.10
2022-12-29T05:58:57.027Z,1.02
2022-12-29T06:02:00.850Z,1.00
2022-12-29T06:05:06.767Z,0.93
2022-12-29T06:08:17.110Z,0.95
2022-12-29T06:11:20.361Z,0.98
2022-12-29T06:14:33.887Z,0.82
2022-12-29T06:17:40.455Z,0.74
2022-12-29T06:20:43.542Z,0.65
2022-12-29T06:23:46.739Z,0.70
2022-12-29T06:26:49.327Z,0.68
2022-12-29T06:29:53.120Z,0.65
2022-12-29T06:32:55.874Z,0.63
2022-12-29T06:36:02.727Z,0.58
2022-12-29T06:39:07.193Z,0.56
2022-12-29T06:42:14.437Z,0.52
2022-12-29T06:45:31.952Z,0.59
2022-12-29T06:48:34.518Z,0.64
2022-12-29T06:51:38.230Z,0.86
2022-12-29T06:54:40.760Z,0.99
2022-12-29T06:57:46.328Z,1.02
2022-12-29T07:00:49.724Z,0.98
2022-12-29T07:04:01.355Z,1.02
2022-12-29T07:07:06.893Z,0.96
2022-12-29T07:10:10.455Z,0.99
2022-12-29T07:13:16.092Z,1.02
2022-12-29T07:16:22.449Z,0.95
2022-12-29T07:19:25.328Z,0.91
2022-12-29T07:22:28.014Z,0.88
2022-12-29T07:25:30.913Z,0.91
2022-12-29T07:28:33.667Z,0.92
2022-12-29T07:31:36.642Z,0.99
2022-12-29T07:34:40.887Z,1.04
2022-12-29T07:37:43.342Z,1.08
2022-12-29T07:40:45.818Z,1.13
2022-12-29T07:43:49.546Z,1.28
2022-12-29T07:47:18.513Z,1.31
2022-12-29T07:50:21.098Z,1.42
2022-12-29T07:53:23.657Z,1.45
2022-12-29T07:56:26.554Z,1.61
2022-12-29T07:59:29.813Z,1.70
2022-12-29T08:02:32.564Z,1.61
2022-12-29T08:05:35.943Z,1.42
2022-12-29T08:08:39.337Z,1.42
2022-12-29T08:11:42.107Z,1.52
2022-12-29T08:14:44.898Z,1.66
2022-12-29T08:17:47.572Z,1.80
2022-12-29T08:20:55.624Z,1.87
2022-12-29T08:23:58.616Z,1.99
2022-12-29T08:27:09.080Z,2.05
2022-12-29T08:30:16.016Z,2.19
2022-12-29T08:33:18.744Z,2.26
2022-12-29T08:36:21.590Z,2.34
2022-12-29T08:39:24.574Z,2.42
2022-12-29T08:42:32.375Z,2.42
2022-12-29T08:45:35.092Z,2.60
2022-12-29T08:48:37.777Z,2.72
2022-12-29T08:51:40.728Z,2.63
2022-12-29T08:54:43.250Z,2.68
2022-12-29T08:57:47.242Z,2.56
2022-12-29T09:00:56.218Z,2.42
2022-12-29T09:04:16.194Z,2.31
2022-12-29T09:07:20.262Z,2.39
2022-12-29T09:10:23.064Z,2.50
2022-12-29T09:13:26.002Z,2.57
2022-12-29T09:16:28.678Z,2.39
2022-12-29T09:19:31.878Z,2.43
2022-12-29T09:22:34.659Z,2.49
2022-12-29T09:25:38.260Z,2.49
2022-12-29T09:28:41.568Z,2.64
2022-12-29T09:31:45.072Z,2.64
2022-12-29T09:34:48.172Z,2.75
2022-12-29T09:37:51.436Z,2.97
2022-12-29T09:41:08.218Z,2.99
2022-12-29T09:44:14.482Z,3.05
2022-12-29T09:47:17.893Z,3.15
2022-12-29T09:50:36.881Z,2.99
2022-12-29T09:53:41.421Z,3.17
2022-12-29T09:56:44.474Z,3.12
2022-12-29T09:59:47.437Z,3.17
2022-12-29T10:02:54.227Z,3.35
2022-12-29T10:05:59.566Z,3.39
2022-12-29T10:09:02.472Z,3.37
2022-12-29T10:12:23.611Z,3.33
2022-12-29T10:15:46.355Z,3.52
2022-12-29T10:18:58.186Z,3.38
2022-12-29T10:22:01.292Z,3.42
2022-12-29T10:25:06.456Z,3.59
2022-12-29T10:28:18.421Z,3.82
2022-12-29T10:31:25.218Z,3.82
2022-12-29T10:34:34.767Z,3.90
2022-12-29T10:37:42.899Z,3.78
2022-12-29T10:40:58.015Z,3.84
2022-12-29T10:44:00.879Z,3.86
2022-12-29T10:47:06.347Z,3.69
2022-12-29T10:50:15.203Z,3.56
2022-12-29T10:53:20.841Z,3.59
2022-12-29T10:56:32.437Z,3.66
2022-12-29T10:59:36.974Z,3.47
2022-12-29T11:02:58.704Z,3.43
2022-12-29T11:06:07.720Z,3.19
2022-12-29T11:09:17.893Z,3.32
2022-12-29T11:12:22.566Z,3.50
2022-12-29T11:15:25.425Z,3.67
2022-12-29T11:18:28.326Z,3.73
2022-12-29T11:21:34.718Z,3.83
2022-12-29T11:24:37.950Z,3.94
2022-12-29T11:27:43.492Z,4.09
2022-12-29T11:30:46.487Z,4.28
2022-12-29T11:33:49.322Z,4.37
2022-12-29T11:36:53.685Z,4.39
2022-12-29T11:40:04.818Z,4.35
2022-12-29T11:43:07.330Z,4.42
2022-12-29T11:46:15.916Z,4.33
2022-12-29T11:49:23.507Z,4.35
2022-12-29T11:52:28.104Z,4.49
2022-12-29T11:55:31.268Z,4.53
2022-12-29T11:58:35.276Z,4.52
2022-12-29T12:01:38.647Z,4.54
2022-12-29T12:04:41.592Z,4.58
2022-12-29T12:07:45.595Z,4.57
2022-12-29T12:10:56.218Z,4.67
2022-12-29T12:14:04.294Z,4.70
2022-12-29T12:17:33.804Z,4.75
2022-12-29T12:20:58.979Z,4.78
2022-12-29T12:24:11.072Z,4.72
2022-12-29T12:27:16.415Z,4.75
2022-12-29T12:30:23.101Z,4.72
2022-12-29T12:33:29.620Z,4.79
2022-12-29T12:36:32.367Z,4.84
2022-12-29T12:39:45.642Z,4.95
2022-12-29T12:43:08.217Z,5.02
2022-12-29T12:49:32.565Z,4.86
2022-12-29T12:52:39.541Z,5.00
2022-12-29T12:56:14.940Z,5.03
2022-12-29T12:59:20.316Z,4.89
2022-12-29T13:02:41.396Z,5.00
2022-12-29T13:06:03.015Z,4.90
2022-12-29T13:09:15.193Z,4.92
2022-12-29T13:12:18.769Z,5.04
2022-12-29T13:15:31.395Z,5.07
2022-12-29T13:18:37.315Z,5.08
2022-12-29T13:22:03.823Z,5.11
2022-12-29T13:25:15.284Z,5.18
2022-12-29T13:28:31.944Z,5.12
2022-12-29T13:31:36.755Z,5.02
2022-12-29T13:34:51.521Z,4.92
2022-12-29T13:38:12.208Z,4.70
2022-12-29T13:41:20.181Z,4.66
2022-12-29T13:44:43.152Z,4.61
2022-12-29T13:47:48.001Z,4.65
2022-12-29T13:50:54.976Z,4.64
2022-12-29T13:54:11.905Z,4.74
2022-12-29T13:57:22.714Z,4.70
2022-12-29T14:00:31.866Z,4.65
2022-12-29T14:03:38.717Z,4.57
2022-12-29T14:06:44.250Z,4.62
2022-12-29T14:09:50.849Z,4.61
2022-12-29T14:12:54.782Z,4.62
2022-12-29T14:16:01.475Z,4.59
2022-12-29T14:19:27.891Z,4.51
2022-12-29T14:22:33.517Z,4.52
2022-12-29T14:25:56.569Z,4.59
2022-12-29T14:29:17.219Z,4.54
2022-12-29T14:32:26.314Z,4.44
2022-12-29T14:35:45.516Z,4.34
2022-12-29T14:38:49.070Z,4.39
2022-12-29T14:42:01.064Z,4.28
2022-12-29T14:45:27.367Z,4.20
2022-12-29T14:48:37.280Z,4.23
2022-12-29T14:51:39.768Z,4.19
2022-12-29T14:54:43.999Z,4.14
2022-12-29T14:57:49.957Z,4.13
2022-12-29T15:00:52.620Z,3.99
2022-12-29T15:03:56.916Z,3.96
2022-12-29T15:06:59.786Z,3.78
2022-12-29T15:10:06.915Z,3.61
2022-12-29T15:13:16.614Z,3.49
2022-12-29T15:16:23.943Z,3.47
2022-12-29T15:19:26.896Z,3.39
2022-12-29T15:22:29.227Z,3.22
2022-12-29T15:25:31.804Z,3.15
2022-12-29T15:28:38.949Z,3.05
2022-12-29T15:31:47.320Z,3.00
2022-12-29T15:34:50.985Z,2.96
2022-12-29T15:37:53.591Z,2.81
2022-12-29T15:41:04.853Z,2.60
2022-12-29T15:44:18.415Z,2.56
2022-12-29T15:47:24.944Z,2.55
2022-12-29T15:50:28.032Z,2.64
2022-12-29T15:53:31.598Z,2.63
2022-12-29T15:56:34.231Z,2.54
2022-12-29T15:59:37.250Z,2.50
2022-12-29T16:02:39.946Z,2.32
2022-12-29T16:05:42.973Z,2.29
2022-12-29T16:08:47.099Z,2.27
2022-12-29T16:11:54.362Z,2.26
2022-12-29T16:15:01.889Z,2.18
2022-12-29T16:18:04.533Z,2.16
2022-12-29T16:21:07.741Z,2.20
2022-12-29T16:24:15.144Z,2.18
2022-12-29T16:27:21.988Z,2.22
2022-12-29T16:30:32.826Z,2.10
2022-12-29T16:33:49.032Z,2.15
2022-12-29T16:36:58.092Z,2.22
2022-12-29T16:40:20.342Z,2.27
2022-12-29T16:43:34.342Z,2.27
2022-12-29T16:46:37.304Z,2.18
2022-12-29T16:49:41.570Z,2.28
2022-12-29T16:52:44.402Z,2.29
2022-12-29T16:55:50.301Z,2.22
2022-12-29T16:58:55.638Z,2.23
2022-12-29T17:01:58.797Z,2.38
2022-12-29T17:05:01.366Z,2.31
2022-12-29T17:08:03.812Z,2.30
2022-12-29T17:11:25.067Z,2.33
2022-12-29T17:14:39.794Z,2.27
2022-12-29T17:17:43.436Z,2.30
2022-12-29T17:20:46.619Z,2.21
2022-12-29T17:23:49.184Z,2.24
2022-12-29T17:26:53.587Z,2.21
2022-12-29T17:29:57.662Z,2.16
2022-12-29T17:33:02.147Z,2.12
2022-12-29T17:36:05.284Z,2.19
2022-12-29T17:39:08.081Z,2.09
2022-12-29T17:42:11.230Z,2.18
2022-12-29T17:45:18.205Z,2.23
2022-12-29T17:48:21.134Z,2.17
2022-12-29T17:51:24.433Z,2.10
2022-12-29T17:54:29.019Z,1.96
2022-12-29T17:57:32.576Z,1.95
2022-12-29T18:00:35.799Z,2.08
2022-12-29T18:03:39.560Z,2.15
2022-12-29T18:06:42.930Z,2.17
2022-12-29T18:09:45.847Z,2.07
2022-12-29T18:12:49.440Z,2.05
2022-12-29T18:15:53.497Z,1.94
2022-12-29T18:18:56.866Z,1.93
2022-12-29T18:22:02.984Z,1.81
2022-12-29T18:25:21.554Z,1.74
2022-12-29T18:28:26.058Z,1.76
2022-12-29T18:31:33.571Z,1.78
2022-12-29T18:34:37.258Z,1.84
2022-12-29T18:37:40.334Z,1.90
2022-12-29T18:40:43.206Z,1.93
2022-12-29T18:43:48.331Z,1.95
2022-12-29T18:46:52.113Z,1.92
2022-12-29T18:49:57.333Z,1.90
2022-12-29T18:53:04.014Z,1.94
2022-12-29T18:56:09.855Z,1.89
2022-12-29T18:59:12.755Z,1.94
2022-12-29T19:02:18.894Z,1.85
2022-12-29T19:05:30.623Z,1.78
2022-12-29T19:08:33.415Z,1.74
2022-12-29T19:11:39.110Z,1.74
2022-12-29T19:14:42.190Z,1.81
2022-12-29T19:18:01.725Z,1.83
2022-12-29T19:21:14.043Z,1.85
2022-12-29T19:24:17.353Z,1.90
2022-12-29T19:27:20.959Z,1.91
2022-12-29T19:30:26.587Z,1.89
2022-12-29T19:33:32.993Z,1.85
2022-12-29T19:36:38.006Z,1.83
2022-12-29T19:39:42.436Z,1.83
2022-12-29T19:42:49.021Z,1.90
2022-12-29T19:45:53.998Z,1.92
2022-12-29T19:49:01.475Z,1.97
2022-12-29T19:52:04.790Z,1.94
2022-12-29T19:55:09.264Z,2.04
2022-12-29T19:58:13.270Z,2.07
2022-12-29T20:01:41.656Z,2.03
2022-12-29T20:04:44.756Z,2.09
2022-12-29T20:07:49.646Z,2.24
2022-12-29T20:11:03.041Z,2.27
2022-12-29T20:14:05.905Z,2.26
2022-12-29T20:17:11.560Z,2.30
2022-12-29T20:20:14.552Z,2.28
2022-12-29T20:23:17.497Z,2.23
2022-12-29T20:26:20.249Z,2.26
2022-12-29T20:29:23.316Z,2.11
2022-12-29T20:32:26.383Z,2.24
2022-12-29T20:35:29.402Z,2.16
2022-12-29T20:38:33.112Z,2.08
2022-12-29T20:41:36.951Z,2.05
2022-12-29T20:44:40.092Z,2.17
2022-12-29T20:47:42.734Z,2.25
2022-12-29T20:50:49.033Z,2.32
2022-12-29T20:53:52.152Z,2.34
2022-12-29T20:56:55.771Z,2.16
2022-12-29T20:59:58.535Z,2.13
2022-12-29T21:03:01.942Z,2.22
2022-12-29T21:06:05.101Z,2.27
2022-12-29T21:09:09.155Z,2.28
2022-12-29T21:12:11.968Z,2.24
2022-12-29T21:15:16.094Z,2.24
2022-12-29T21:18:18.970Z,2.20
2022-12-29T21:21:22.778Z,2.15
2022-12-29T21:24:26.820Z,2.10
2022-12-29T21:27:29.961Z,2.13
2022-12-29T21:30:33.695Z,2.07
2022-12-29T21:33:37.957Z,2.04
2022-12-29T21:36:40.852Z,2.03
2022-12-29T21:39:43.822Z,2.07
2022-12-29T21:42:46.747Z,2.04
2022-12-29T21:45:52.544Z,1.98
2022-12-29T21:48:55.448Z,1.92
2022-12-29T21:51:58.028Z,1.84
2022-12-29T21:55:00.966Z,1.67
2022-12-29T21:58:22.532Z,1.60
2022-12-29T22:01:44.262Z,1.60
2022-12-29T22:05:05.992Z,1.52
2022-12-29T22:08:27.523Z,1.55
2022-12-29T22:11:49.154Z,1.46
2022-12-29T22:14:51.709Z,1.39
2022-12-29T22:17:54.499Z,1.51
2022-12-29T22:20:57.323Z,1.58
2022-12-29T22:24:00.951Z,1.51
2022-12-29T22:27:03.984Z,1.48
2022-12-29T22:30:07.023Z,1.53
2022-12-29T22:33:09.697Z,1.54
2022-12-29T22:36:12.229Z,1.61
2022-12-29T22:39:14.718Z,1.59
2022-12-29T22:42:17.729Z,1.58
2022-12-29T22:45:20.247Z,1.81
2022-12-29T22:48:23.251Z,1.76
2022-12-29T22:51:25.623Z,1.74
2022-12-29T22:54:28.262Z,1.79
2022-12-29T22:57:31.461Z,1.79
2022-12-29T23:00:34.138Z,1.72
2022-12-29T23:03:37.464Z,1.69
2022-12-29T23:06:39.992Z,1.67
2022-12-29T23:09:42.615Z,1.77
2022-12-29T23:12:45.436Z,1.73
2022-12-29T23:15:48.495Z,1.75
2022-12-29T23:18:51.517Z,1.84
2022-12-29T23:21:53.986Z,1.83
2022-12-29T23:24:56.602Z,1.87
2022-12-29T23:27:58.976Z,1.89
2022-12-29T23:31:01.867Z,1.86
2022-12-29T23:34:04.838Z,1.83
2022-12-29T23:37:07.927Z,1.90
2022-12-29T23:40:10.605Z,2.02
2022-12-29T23:43:13.001Z,1.96
2022-12-29T23:46:16.867Z,1.79
2022-12-29T23:49:19.214Z,1.75
2022-12-29T23:52:21.759Z,1.74
2022-12-29T23:55:24.231Z,1.84
2022-12-29T23:58:26.820Z,1.79
